Time;durP1;ratioP1;P1;durP2;ratioP2;P2;SDS_P1;SDS_P2;PMS_P1;PMS_P2;Temp;Humidity;BMP_temperature;BMP_pressure;BME280_temperature;BME280_humidity;BME280_pressure;Samples;Min_cycle;Max_cycle;Signal;HPM_P1;HPM_P2
2022/12/29 15:25:37;;;;;;;;;;;;;;;;;;;;;
2022/12/29 15:29:13;;;;;;;6.62;4.62;;;;;;;9.22;60.02;99499.79;2517881;77;25636;-79
2022/12/29 15:32:54;;;;;;;6.92;4.15;;;;;;;9.29;59.98;99497.28;2343705;82;25657;-79
2022/12/29 15:36:31;;;;;;;8.85;5.20;;;;;;;9.38;59.72;99499.59;2331599;83;25663;-79
2022/12/29 15:39:58;;;;;;;;;;;;;;;9.53;59.68;99491.55;2344425;83;25887;-80
2022/12/29 15:43:56;;;;;;;8.95;4.95;;;;;;;9.70;59.44;99490.03;2346440;82;25847;-81
2022/12/29 15:47:29;;;;;;;7.42;4.53;;;;;;;9.86;59.41;99495.88;2353959;83;25679;-79
2022/12/29 15:51:17;;;;;;;;;;;;;;;;;;;;;
2022/12/29 15:54:51;;;;;;;11.35;5.35;;;;;;;10.19;59.38;99498.41;2338200;83;26479;-80
2022/12/29 15:58:29;;;;;;;8.88;5.30;;;;;;;10.38;59.39;99494.31;2333849;83;25954;-80
2022/12/29 16:02:06;;;;;;;11.20;4.60;;;;;;;10.56;59.05;99493.61;2336621;80;25725;-79
2022/12/29 16:05:42;;;;;;;9.45;5.28;;;;;;;10.70;59.09;99498.54;2445883;79;25295;-81
2022/12/29 16:09:34;;;;;;;11.75;3.90;;;;;;;10.84;58.96;99493.01;2484085;78;25738;-79
2022/12/29 16:13:17;;;;;;;8.00;5.05;;;;;;;11.19;59.78;99495.44;2471775;79;25586;-82
2022/12/29 16:16:55;;;;;;;8.40;4.85;;;;;;;11.19;59.78;99495.44;2465498;79;25744;-82
2022/12/29 16:20:40;;;;;;;6.20;4.65;;;;;;;11.32;58.80;99494.22;2465748;79;25782;-81
2022/12/29 16:24:40;;;;;;;;;;;;;;;;;;;;;
2022/12/29 16:28:29;;;;;;;12.00;4.80;;;;;;;11.44;58.18;99504.28;2403108;81;25979;-81
2022/12/29 16:32:02;;;;;;;10.05;5.35;;;;;;;11.45;57.58;99506.05;2399228;81;25885;-83
2022/12/29 16:35:50;;;;;;;5.08;4.33;;;;;;;11.48;57.59;99503.45;2397930;80;25838;-81
2022/12/29 16:39:39;;;;;;;6.78;4.22;;;;;;;11.52;57.50;99511.73;2361546;82;25752;-82
2022/12/29 16:43:42;;;;;;;10.28;4.72;;;;;;;11.55;57.01;99515.23;2390141;82;26387;-81
2022/12/29 16:47:25;;;;;;;6.17;4.50;;;;;;;11.58;56.62;99519.17;2406679;82;25855;-81
2022/12/29 16:51:20;;;;;;;5.78;4.50;;;;;;;11.65;56.71;99520.52;2388127;79;25649;-81
2022/12/29 16:54:55;;;;;;;8.85;4.28;;;;;;;11.63;56.52;99516.58;2294174;84;25874;-81
2022/12/29 16:58:37;;;;;;;8.33;5.40;;;;;;;11.59;56.39;99530.05;2291380;85;25731;-81
2022/12/29 17:02:24;;;;;;;6.25;4.75;;;;;;;11.61;56.33;99531.38;2304136;83;25701;-80
2022/12/29 17:06:03;;;;;;;5.83;4.73;;;;;;;11.62;56.08;99520.06;2227932;88;25832;-81
2022/12/29 17:09:31;;;;;;;6.00;4.47;;;;;;;11.63;55.96;99521.80;2186679;88;25741;-82
2022/12/29 17:12:59;;;;;;;6.57;4.10;;;;;;;11.59;56.01;99519.61;2185115;89;25768;-82
2022/12/29 17:16:34;;;;;;;4.72;3.95;;;;;;;11.59;55.75;99519.61;2176199;89;25883;-81
2022/12/29 17:20:05;;;;;;;7.35;4.53;;;;;;;11.65;55.61;99510.95;2179870;89;25938;-79
2022/12/29 17:23:38;;;;;;;6.67;4.53;;;;;;;11.68;55.56;99520.11;2186266;84;26410;-79
2022/12/29 17:27:36;;;;;;;6.83;4.70;;;;;;;11.71;55.46;99525.34;2244557;85;25821;-82
2022/12/29 17:31:07;;;;;;;7.42;4.30;;;;;;;11.76;55.34;99524.92;2246374;86;25714;-81
2022/12/29 17:34:40;;;;;;;5.95;5.25;;;;;;;11.79;55.16;99513.19;2207691;87;25749;-80
2022/12/29 17:38:30;;;;;;;11.65;4.70;;;;;;;11.82;55.19;99520.17;2221178;87;25800;-81
2022/12/29 17:42:02;;;;;;;8.05;5.03;;;;;;;11.85;55.07;99525.88;2332156;82;25829;-80
2022/12/29 17:45:39;;;;;;;5.50;5.00;;;;;;;11.86;54.92;99516.73;2368651;82;25744;-80
2022/12/29 17:49:09;;;;;;;7.92;4.80;;;;;;;11.85;54.98;99518.05;2342040;83;26344;-79
2022/12/29 17:52:47;;;;;;;8.20;5.10;;;;;;;11.89;55.17;99513.27;2334181;82;25742;-81
2022/12/29 17:56:29;;;;;;;7.42;5.50;;;;;;;11.90;54.70;99513.26;2335069;81;25677;-79
2022/12/29 18:00:27;;;;;;;6.67;4.90;;;;;;;12.03;54.67;99516.36;2326461;84;25666;-80
2022/12/29 18:04:06;;;;;;;6.50;4.72;;;;;;;12.19;54.46;99509.46;2262060;85;25678;-81
2022/12/29 18:07:52;;;;;;;7.20;5.55;;;;;;;12.35;54.13;99513.41;2245052;86;25808;-79
2022/12/29 18:11:39;;;;;;;8.90;5.10;;;;;;;12.44;53.89;99519.53;2274543;85;26557;-81
2022/12/29 18:15:17;;;;;;;5.95;4.62;;;;;;;12.54;53.71;99529.58;2210424;89;25743;-80
2022/12/29 18:19:13;;;;;;;;;;;;;;;;;;;;;
2022/12/29 18:22:43;;;;;;;5.20;4.70;;;;;;;12.67;53.42;99540.50;2069409;91;26273;-81
2022/12/29 18:26:22;;;;;;;5.40;4.85;;;;;;;12.71;53.29;99538.31;2093369;92;25782;-81
2022/12/29 18:30:10;;;;;;;6.33;5.10;;;;;;;12.75;53.14;99548.34;2051637;93;25934;-81
2022/12/29 18:33:38;;;;;;;7.10;4.97;;;;;;;12.79;52.97;99552.73;2084006;93;25868;-82
2022/12/29 18:37:14;;;;;;;7.70;5.37;;;;;;;12.80;52.82;99545.31;2116672;92;25944;-86
2022/12/29 18:41:04;;;;;;;;;;;;;;;12.82;52.70;99541.38;2154678;90;25952;-83
2022/12/29 18:44:32;;;;;;;5.00;4.35;;;;;;;12.84;52.55;99551.42;2150073;90;25849;-82
2022/12/29 18:48:27;;;;;;;7.92;5.17;;;;;;;12.84;52.52;99547.05;2103475;93;25749;-85
2022/12/29 18:52:08;;;;;;;8.20;5.53;;;;;;;12.85;52.48;99545.31;2069752;94;25896;-84
2022/12/29 18:55:52;;;;;;;7.17;5.55;;;;;;;12.86;52.37;99548.35;2112994;91;25773;-80
2022/12/29 19:02:57;;;;;;;6.12;4.85;;;;;;;12.87;52.19;99540.52;2060968;94;26607;-82
2022/12/29 19:06:30;;;;;;;16.17;7.90;;;;;;;12.89;52.17;99540.10;2102324;92;26467;-80
2022/12/29 19:10:07;;;;;;;21.95;9.20;;;;;;;12.81;52.40;99537.03;2155762;90;26530;-81
2022/12/29 19:13:36;;;;;;;18.77;8.08;;;;;;;12.70;52.69;99535.72;2185976;90;25663;-82
2022/12/29 19:17:14;;;;;;;14.53;8.45;;;;;;;12.57;52.83;99534.81;2147539;91;25821;-81
2022/12/29 19:20:53;;;;;;;;;;;;;;;12.47;52.83;99532.61;2147775;90;25780;-81
2022/12/29 19:24:24;;;;;;;7.67;6.95;;;;;;;12.42;52.87;99530.44;2136226;90;26416;-82
2022/12/29 19:27:50;;;;;;;12.75;6.90;;;;;;;12.37;53.01;99532.15;2179835;88;25807;-81
2022/12/29 19:31:21;;;;;;;12.37;7.80;;;;;;;12.27;53.10;99538.22;2190041;89;26307;-81
2022/12/29 19:35:04;;;;;;;15.72;7.70;;;;;;;12.23;53.08;99532.11;2138749;90;25769;-81
2022/12/29 19:38:40;;;;;;;9.63;7.40;;;;;;;12.18;53.32;99533.86;2133898;88;25826;-81
2022/12/29 19:42:13;;;;;;;11.18;6.45;;;;;;;12.15;53.35;99527.31;2231933;87;25759;-81
2022/12/29 19:45:46;;;;;;;12.93;7.30;;;;;;;12.12;53.32;99527.30;2232334;87;25821;-81
2022/12/29 19:49:22;;;;;;;9.78;7.53;;;;;;;12.12;53.37;99532.96;2237816;87;25743;-81
2022/12/29 19:52:54;;;;;;;13.10;7.05;;;;;;;12.14;53.31;99530.77;2230472;87;25793;-83
2022/12/29 19:56:33;;;;;;;9.15;6.55;;;;;;;12.13;53.20;99531.64;2262790;87;25728;-81
2022/12/29 20:00:09;;;;;;;10.28;6.97;;;;;;;12.16;53.19;99541.24;2269613;85;25967;-81
2022/12/29 20:03:42;;;;;;;7.42;6.25;;;;;;;12.17;53.26;99543.84;2244206;85;25674;-81
2022/12/29 20:07:15;;;;;;;9.50;7.15;;;;;;;12.15;53.30;99543.39;2191358;88;25727;-82
2022/12/29 20:10:43;;;;;;;12.53;7.25;;;;;;;12.15;53.31;99542.98;2194487;89;25728;-81
2022/12/29 20:14:10;;;;;;;11.90;7.00;;;;;;;12.10;53.26;99534.68;2143086;91;34802;-80
2022/12/29 20:17:41;;;;;;;10.30;6.45;;;;;;;12.04;53.14;99529.85;2150248;91;25721;-80
2022/12/29 20:21:24;;;;;;;9.08;6.87;;;;;;;11.99;53.06;99528.98;2179842;88;25711;-83
2022/12/29 20:24:57;;;;;;;;;;;;;;;11.98;53.07;99528.95;2194901;89;25913;-83
2022/12/29 20:28:32;;;;;;;11.03;6.67;;;;;;;11.85;52.88;99527.19;2198739;89;25934;-81
2022/12/29 20:32:15;;;;;;;15.75;7.12;;;;;;;11.74;52.98;99531.86;2196603;88;25814;-81
2022/12/29 20:35:44;;;;;;;9.28;6.90;;;;;;;11.69;53.09;99536.20;2233958;86;25252;-79
2022/12/29 20:39:17;;;;;;;14.78;6.80;;;;;;;11.76;53.31;99533.19;2308383;85;26158;-81
2022/12/29 20:42:55;;;;;;;8.90;7.17;;;;;;;11.83;53.47;99538.88;2315646;85;25871;-80
2022/12/29 20:46:25;;;;;;;14.83;7.05;;;;;;;11.90;53.63;99531.55;2336198;83;25825;-81
2022/12/29 20:50:24;;;;;;;7.95;6.60;;;;;;;11.98;53.80;99538.09;2356077;81;25952;-81
2022/12/29 20:54:06;;;;;;;11.40;6.90;;;;;;;12.05;53.96;99539.90;2405160;80;25892;-82
2022/12/29 20:57:48;;;;;;;10.43;6.63;;;;;;;12.11;53.98;99544.25;2361655;81;25386;-82
2022/12/29 21:01:37;;;;;;;;;;;;;;;;;;;;;
2022/12/29 21:05:11;;;;;;;;;;;;;;;;;;;;;
2022/12/29 21:08:39;;;;;;;10.65;6.53;;;;;;;12.49;53.56;99548.31;2399553;82;25778;-83
2022/12/29 21:16:17;;;;;;;;;;;;;;;;;;;;;
2022/12/29 21:19:50;;;;;;;7.37;5.92;;;;;;;12.73;52.93;99551.41;2264862;87;25816;-80
2022/12/29 21:23:23;;;;;;;7.78;6.95;;;;;;;12.79;52.79;99550.53;2267551;84;25793;-81
